Flight Track Log - Related Links

Times and Time Zones

All times are in EDT time to prevent confusion due to time zone crossing. See the TAM3244 flight status page for this flight to view local times or setup timezone preferences in your user account.

Time Position Orientation Groundspeed Altitude Reporting Facility
EDT Latitude Longitude Course Direction KTS MPH feet Rate Location/Type
Sat 12:43:00 PM -22.8076 -46.9343 343° North  Level Estimated
Sat 12:44:00 PM -22.7166 -46.9651 343° North  Level Estimated
Sat 12:45:00 PM -22.6255 -46.9959 343° North  Level Estimated
Sat 12:46:00 PM -22.5345 -47.0266 343° North  Level Estimated
Sat 12:47:00 PM -22.4434 -47.0572 343° North  Level Estimated
Sat 12:48:00 PM -22.3523 -47.0879 343° North  Level Estimated
Sat 12:49:00 PM -22.2613 -47.1184 343° North  Level Estimated
Sat 12:50:00 PM -22.1702 -47.1490 343° North  Level Estimated
Sat 12:51:00 PM -22.0791 -47.1795 343° North  Level Estimated
Sat 12:52:00 PM -21.9880 -47.2100 343° North  Level Estimated
Sat 12:53:00 PM -21.8969 -47.2404 343° North  Level Estimated
Sat 12:54:00 PM -21.8058 -47.2708 343° North  Level Estimated
Sat 12:55:00 PM -21.7147 -47.3011 343° North  Level Estimated
Sat 12:56:00 PM -21.6236 -47.3314 343° North  Level Estimated
Sat 12:57:00 PM -21.5325 -47.3617 343° North  Level Estimated
Sat 12:58:00 PM -21.4414 -47.3919 343° North  Level Estimated
Sat 12:59:00 PM -21.3502 -47.4221 343° North  Level Estimated
Sat 01:00:00 PM -21.2591 -47.4523 343° North  Level Estimated
Sat 01:01:00 PM -21.1680 -47.4824 343° North  Level Estimated
Sat 01:02:00 PM -21.0768 -47.5125 343° North  Level Estimated
Sat 01:03:00 PM -20.9857 -47.5426 343° North  Level Estimated
Sat 01:04:00 PM -20.8945 -47.5726 343° North  Level Estimated
Sat 01:05:00 PM -20.8034 -47.6025 343° North  Level Estimated
Sat 01:06:00 PM -20.7122 -47.6325 343° North  Level Estimated
Sat 01:07:00 PM -20.6210 -47.6624 343° North  Level Estimated
Sat 01:08:00 PM -20.5299 -47.6922 343° North  Level Estimated
Sat 01:09:00 PM -20.4387 -47.7221 343° North  Level Estimated
Sat 01:10:00 PM -20.3475 -47.7519 343° North  Level Estimated
Sat 01:11:00 PM -20.2563 -47.7816 343° North  Level Estimated
Sat 01:12:00 PM -20.1651 -47.8114 343° North  Level Estimated
Sat 01:13:00 PM -20.0739 -47.8411 343° North  Level Estimated
Sat 01:14:00 PM -19.9827 -47.8707 343° North  Level Estimated
Sat 01:15:00 PM -19.8915 -47.9003 343° North  Level Estimated
Sat 01:16:00 PM -19.8003 -47.9299 343° North  Level Estimated
Sat 01:17:00 PM -19.7091 -47.9595 343° North  Level Estimated
Sat 01:18:00 PM -19.6179 -47.9890 343° North  Level Estimated
Sat 01:19:00 PM -19.5266 -48.0185 343° North  Level Estimated
Sat 01:20:00 PM -19.4354 -48.0479 343° North  Level Estimated
Sat 01:21:00 PM -19.3442 -48.0774 343° North  Level Estimated
Sat 01:22:00 PM -19.2529 -48.1068 343° North  Level Estimated
Sat 01:23:00 PM -19.1617 -48.1361 343° North  Level Estimated
Sat 01:24:00 PM -19.0704 -48.1654 343° North  Level Estimated
Sat 01:25:00 PM -18.9792 -48.1947 343° North  Level Estimated
Sat 01:26:00 PM -18.8879 -48.2240 343° North  Level Estimated
Sat 01:27:00 PM -18.8828 -48.2256 343° North  Level Estimated
Sat 01:28:00 PM -18.8828 -48.2256 223° Southwest  Level Estimated
Sat 01:29:00 PM -18.8828 -48.2256 223° Southwest  Level Estimated
Sat 01:30:00 PM -18.8828 -48.2256 223° Southwest  Level Estimated
Sat 01:31:00 PM -18.8828 -48.2256 223° Southwest  Level Estimated
Sat 01:32:00 PM -18.8828 -48.2256 223° Southwest  Level Estimated
Sat 01:33:00 PM -18.8828 -48.2256 223° Southwest  Level Estimated
Sat 01:34:00 PM -18.8828 -48.2256 223° Southwest  Level Estimated
Sat 01:35:00 PM -18.8828 -48.2256 223° Southwest  Level Estimated
Sat 01:36:00 PM -18.8828 -48.2256 223° Southwest  Level Estimated
Sat 01:37:00 PM -18.8828 -48.2256 223° Southwest  Level Estimated
Sat 01:38:00 PM -18.8828 -48.2256 223° Southwest  Level Estimated
Sat 01:39:00 PM -18.8828 -48.2256 223° Southwest  Level Estimated
Sat 01:40:00 PM -18.8828 -48.2256 223° Southwest  Level Estimated
Sat 01:41:00 PM -18.8828 -48.2256 223° Southwest  Level Estimated
Sat 01:42:00 PM -18.8828 -48.2256 223° Southwest  Level Estimated

Login

Don't have an account? Register now (free) for customized features, flight alerts, and more!